createdAt,value
2023-07-17T00:01:03.507Z,99192.31
2023-07-17T00:04:05.906Z,99187.72
2023-07-17T00:07:08.323Z,99193.66
2023-07-17T00:10:11.849Z,99195.13
2023-07-17T00:13:14.301Z,99184.91
2023-07-17T00:16:16.669Z,99189.97
2023-07-17T00:19:19.612Z,99182.66
2023-07-17T00:22:22.774Z,99176.75
2023-07-17T00:25:25.467Z,99183.78
2023-07-17T00:28:27.721Z,99178.22
2023-07-17T00:31:30.147Z,99181.78
2023-07-17T00:34:32.581Z,99172.44
2023-07-17T00:37:34.922Z,99173.19
2023-07-17T00:40:43.003Z,99173.56
2023-07-17T00:43:45.445Z,99181.91
2023-07-17T00:46:48.237Z,99192.22
2023-07-17T00:49:50.698Z,99194.00
2023-07-17T00:52:53.066Z,99188.59
2023-07-17T00:55:55.372Z,99192.44
2023-07-17T00:58:58.365Z,99192.75
2023-07-17T01:02:00.914Z,99195.41
2023-07-17T01:05:03.450Z,99189.47
2023-07-17T01:08:05.787Z,99199.44
2023-07-17T01:11:08.203Z,99197.66
2023-07-17T01:14:20.294Z,99196.66
2023-07-17T01:17:22.573Z,99199.38
2023-07-17T01:20:24.898Z,99203.06
2023-07-17T01:23:27.282Z,99199.56
2023-07-17T01:26:30.545Z,99198.69
2023-07-17T01:29:32.961Z,99201.66
2023-07-17T01:32:35.333Z,99198.84
2023-07-17T01:35:37.971Z,99197.88
2023-07-17T01:38:40.332Z,99186.31
2023-07-17T01:41:42.719Z,99192.94
2023-07-17T01:44:45.017Z,99190.69
2023-07-17T01:47:47.300Z,99189.44
2023-07-17T01:50:49.861Z,99186.66
2023-07-17T01:53:52.229Z,99181.78
2023-07-17T01:56:54.750Z,99187.09
2023-07-17T01:59:57.104Z,99187.63
2023-07-17T02:02:59.507Z,99191.72
2023-07-17T02:06:01.914Z,99188.97
2023-07-17T02:09:05.466Z,99201.94
2023-07-17T02:12:08.353Z,99196.56
2023-07-17T02:15:12.831Z,99200.09
2023-07-17T02:18:15.224Z,99202.56
2023-07-17T02:21:17.711Z,99208.56
2023-07-17T02:24:20.400Z,99212.25
2023-07-17T02:27:22.744Z,99211.66
2023-07-17T02:30:25.029Z,99214.41
2023-07-17T02:33:27.445Z,99213.88
2023-07-17T02:36:30.183Z,99211.44
2023-07-17T02:39:32.603Z,99216.50
2023-07-17T02:42:34.913Z,99217.94
2023-07-17T02:45:40.260Z,99238.63
2023-07-17T02:48:42.562Z,99233.97
2023-07-17T02:51:44.885Z,99240.41
2023-07-17T02:54:47.197Z,99236.47
2023-07-17T02:57:49.621Z,99251.38
2023-07-17T03:00:51.945Z,99252.16
2023-07-17T03:03:54.244Z,99254.59
2023-07-17T03:06:56.523Z,99261.87
2023-07-17T03:09:58.826Z,99255.38
2023-07-17T03:13:01.183Z,99257.47
2023-07-17T03:16:03.886Z,99266.84
2023-07-17T03:19:06.304Z,99263.56
2023-07-17T03:22:08.841Z,99261.59
2023-07-17T03:25:11.295Z,99259.47
2023-07-17T03:28:13.998Z,99255.59
2023-07-17T03:31:16.655Z,99248.25
2023-07-17T03:34:19.413Z,99248.28
2023-07-17T03:37:21.798Z,99246.63
2023-07-17T03:40:24.248Z,99242.22
2023-07-17T03:43:26.542Z,99245.78
2023-07-17T03:46:30.249Z,99243.31
2023-07-17T03:49:32.710Z,99245.13
2023-07-17T03:52:35.014Z,99246.28
2023-07-17T03:55:39.718Z,99242.22
2023-07-17T03:58:41.971Z,99247.25
2023-07-17T04:01:44.352Z,99245.78
2023-07-17T04:04:46.864Z,99248.31
2023-07-17T04:07:49.151Z,99252.75
2023-07-17T04:10:51.638Z,99249.50
2023-07-17T04:13:53.992Z,99254.78
2023-07-17T04:16:56.375Z,99251.31
2023-07-17T04:19:58.820Z,99244.81
2023-07-17T04:23:01.134Z,99252.75
2023-07-17T04:26:03.596Z,99249.09
2023-07-17T04:29:07.689Z,99261.28
2023-07-17T04:32:10.276Z,99266.47
2023-07-17T04:35:12.571Z,99262.34
2023-07-17T04:38:14.856Z,99276.97
2023-07-17T04:41:17.990Z,99271.59
2023-07-17T04:44:20.565Z,99267.78
2023-07-17T04:47:22.911Z,99273.53
2023-07-17T04:50:27.113Z,99276.66
2023-07-17T04:53:29.430Z,99281.31
2023-07-17T04:56:32.201Z,99283.81
2023-07-17T04:59:34.602Z,99285.97
2023-07-17T05:02:36.957Z,99287.88
2023-07-17T05:05:39.463Z,99298.66
2023-07-17T05:08:41.839Z,99283.97
2023-07-17T05:11:45.433Z,99284.16
2023-07-17T05:14:47.755Z,99283.25
2023-07-17T05:17:50.090Z,99278.84
2023-07-17T05:20:52.807Z,99285.91
2023-07-17T05:23:55.070Z,99292.81
2023-07-17T05:26:57.394Z,99281.72
2023-07-17T05:29:59.806Z,99282.75
2023-07-17T05:33:02.752Z,99285.37
2023-07-17T05:36:05.218Z,99283.78
2023-07-17T05:39:07.520Z,99284.13
2023-07-17T05:42:09.934Z,99291.06
2023-07-17T05:45:12.306Z,99282.31
2023-07-17T05:48:14.587Z,99290.34
2023-07-17T05:51:17.154Z,99288.06
2023-07-17T05:54:19.800Z,99282.53
2023-07-17T05:57:22.107Z,99278.03
2023-07-17T06:00:24.831Z,99275.81
2023-07-17T06:03:27.195Z,99276.94
2023-07-17T06:06:29.510Z,99277.59
2023-07-17T06:09:32.144Z,99275.97
2023-07-17T06:12:34.760Z,99271.00
2023-07-17T06:15:37.059Z,99269.56
2023-07-17T06:18:39.478Z,99273.25
2023-07-17T06:21:42.498Z,99279.38
2023-07-17T06:24:45.783Z,99274.81
2023-07-17T06:27:48.839Z,99269.50
2023-07-17T06:30:51.165Z,99269.16
2023-07-17T06:33:53.432Z,99265.50
2023-07-17T06:36:55.895Z,99270.13
2023-07-17T06:39:58.334Z,99274.09
2023-07-17T06:43:00.814Z,99273.88
2023-07-17T06:46:03.333Z,99273.97
2023-07-17T06:49:05.758Z,99270.88
2023-07-17T06:52:08.647Z,99275.78
2023-07-17T06:55:11.871Z,99269.75
2023-07-17T06:58:14.264Z,99267.38
2023-07-17T07:01:16.650Z,99268.56
2023-07-17T07:04:19.061Z,99261.94
2023-07-17T07:07:21.476Z,99262.19
2023-07-17T07:10:23.824Z,99266.31
2023-07-17T07:13:27.497Z,99266.38
2023-07-17T07:16:29.954Z,99272.00
2023-07-17T07:19:32.261Z,99264.13
2023-07-17T07:22:34.646Z,99264.56
2023-07-17T07:25:37.247Z,99272.03
2023-07-17T07:28:39.615Z,99267.69
2023-07-17T07:31:41.993Z,99271.81
2023-07-17T07:34:44.343Z,99263.66
2023-07-17T07:37:46.855Z,99268.81
2023-07-17T07:40:50.299Z,99269.75
2023-07-17T07:43:52.687Z,99269.75
2023-07-17T07:46:54.955Z,99271.81
2023-07-17T07:49:57.345Z,99263.53
2023-07-17T07:52:59.654Z,99267.50
2023-07-17T07:56:02.348Z,99263.50
2023-07-17T07:59:04.691Z,99270.25
2023-07-17T08:02:08.094Z,99266.12
2023-07-17T08:05:11.265Z,99272.00
2023-07-17T08:08:13.597Z,99272.00
2023-07-17T08:11:15.952Z,99273.19
2023-07-17T08:14:18.334Z,99271.19
2023-07-17T08:17:20.676Z,99271.06
2023-07-17T08:20:22.998Z,99275.53
2023-07-17T08:23:27.140Z,99274.38
2023-07-17T08:26:30.498Z,99265.75
2023-07-17T08:29:34.120Z,99266.25
2023-07-17T08:32:36.421Z,99272.84
2023-07-17T08:35:38.886Z,99273.88
2023-07-17T08:38:41.202Z,99276.66
2023-07-17T08:41:47.198Z,99276.97
2023-07-17T08:44:50.320Z,99271.31
2023-07-17T08:47:54.303Z,99267.84
2023-07-17T08:50:58.115Z,99267.84
2023-07-17T08:54:13.745Z,99274.88
2023-07-17T08:57:23.028Z,99271.25
2023-07-17T09:00:25.619Z,99271.34
2023-07-17T09:03:29.424Z,99268.22
2023-07-17T09:06:33.522Z,99270.03
2023-07-17T09:09:36.061Z,99274.88
2023-07-17T09:12:42.153Z,99257.56
2023-07-17T09:15:44.492Z,99262.47
2023-07-17T09:18:47.910Z,99271.09
2023-07-17T09:21:50.247Z,99269.25
2023-07-17T09:24:52.960Z,99272.06
2023-07-17T09:27:55.452Z,99267.16
2023-07-17T09:31:02.355Z,99268.38
2023-07-17T09:34:13.510Z,99261.87
2023-07-17T09:37:15.818Z,99266.59
2023-07-17T09:40:19.292Z,99259.38
2023-07-17T09:43:32.577Z,99255.22
2023-07-17T09:46:38.529Z,99257.56
2023-07-17T09:49:41.127Z,99253.31
2023-07-17T09:52:45.760Z,99249.16
2023-07-17T09:55:49.382Z,99250.44
2023-07-17T09:58:52.281Z,99251.41
2023-07-17T10:01:58.782Z,99254.03
2023-07-17T10:05:01.655Z,99244.25
2023-07-17T10:08:09.637Z,99246.97
2023-07-17T10:11:12.418Z,99246.31
2023-07-17T10:14:15.681Z,99245.16
2023-07-17T10:17:31.600Z,99243.31
2023-07-17T10:20:33.947Z,99245.75
2023-07-17T10:23:36.218Z,99244.41
2023-07-17T10:26:38.638Z,99242.72
2023-07-17T10:29:45.482Z,99238.50
2023-07-17T10:32:47.887Z,99239.22
2023-07-17T10:35:58.244Z,99228.75
2023-07-17T10:39:00.605Z,99218.84
2023-07-17T10:42:07.461Z,99214.41
2023-07-17T10:45:13.455Z,99205.44
2023-07-17T10:48:16.464Z,99205.03
2023-07-17T10:51:19.085Z,99211.22
2023-07-17T10:54:21.668Z,99200.13
2023-07-17T10:57:24.269Z,99203.75
2023-07-17T11:00:26.882Z,99196.06
2023-07-17T11:03:29.553Z,99194.47
2023-07-17T11:06:31.863Z,99198.78
2023-07-17T11:09:34.221Z,99195.88
2023-07-17T11:12:36.577Z,99180.97
2023-07-17T11:15:39.300Z,99178.56
2023-07-17T11:18:46.751Z,99174.44
2023-07-17T11:21:49.421Z,99170.84
2023-07-17T11:24:51.782Z,99173.41
2023-07-17T11:27:55.341Z,99173.69
2023-07-17T11:30:57.657Z,99178.19
2023-07-17T11:34:01.480Z,99166.88
2023-07-17T11:37:04.816Z,99164.72
2023-07-17T11:40:08.990Z,99158.25
2023-07-17T11:43:11.280Z,99150.16
2023-07-17T11:46:14.630Z,99144.59
2023-07-17T11:49:17.094Z,99140.78
2023-07-17T11:52:22.452Z,99136.78
2023-07-17T11:55:34.797Z,99135.59
2023-07-17T11:58:41.014Z,99130.91
2023-07-17T12:01:44.368Z,99128.38
2023-07-17T12:04:46.762Z,99124.22
2023-07-17T12:07:49.112Z,99118.41
2023-07-17T12:10:51.708Z,99114.09
2023-07-17T12:13:54.119Z,99118.66
2023-07-17T12:16:56.494Z,99108.28
2023-07-17T12:19:58.856Z,99109.87
2023-07-17T12:23:01.575Z,99111.13
2023-07-17T12:26:04.821Z,99107.03
2023-07-17T12:29:07.187Z,99096.81
2023-07-17T12:32:10.161Z,99088.81
2023-07-17T12:35:12.936Z,99085.31
2023-07-17T12:38:15.242Z,99084.28
2023-07-17T12:41:18.786Z,99091.66
2023-07-17T12:44:21.379Z,99083.81
2023-07-17T12:47:23.845Z,99073.50
2023-07-17T12:50:26.402Z,99066.31
2023-07-17T12:53:28.718Z,99070.13
2023-07-17T12:56:32.608Z,99068.56
2023-07-17T12:59:35.749Z,99062.44
2023-07-17T13:02:40.801Z,99069.25
2023-07-17T13:05:43.377Z,99064.44
2023-07-17T13:08:45.744Z,99065.25
2023-07-17T13:11:48.044Z,99058.00
2023-07-17T13:14:50.878Z,99043.97
2023-07-17T13:17:53.226Z,99039.78
2023-07-17T13:20:55.588Z,99045.56
2023-07-17T13:23:59.954Z,99039.00
2023-07-17T13:27:02.301Z,99034.63
2023-07-17T13:30:05.105Z,99031.56
2023-07-17T13:33:07.507Z,99033.87
2023-07-17T13:36:09.906Z,99035.56
2023-07-17T13:39:12.204Z,99040.53
2023-07-17T13:42:14.505Z,99032.34
2023-07-17T13:45:17.000Z,99029.16
2023-07-17T13:48:19.981Z,99037.81
2023-07-17T13:51:22.371Z,99041.84
2023-07-17T13:54:24.731Z,99060.56
2023-07-17T13:57:27.032Z,99061.59
2023-07-17T14:00:29.847Z,99042.53
2023-07-17T14:03:32.296Z,99052.53
2023-07-17T14:06:34.916Z,99061.88
2023-07-17T14:09:37.204Z,99059.88
2023-07-17T14:12:39.528Z,99063.97
2023-07-17T14:15:41.826Z,99077.16
2023-07-17T14:18:44.212Z,99103.19
2023-07-17T14:21:46.540Z,99138.66
2023-07-17T14:24:48.842Z,99167.41
2023-07-17T14:27:51.862Z,99166.81
2023-07-17T14:30:54.459Z,99167.34
2023-07-17T14:33:57.154Z,99122.47
2023-07-17T14:36:59.480Z,99138.69
2023-07-17T14:40:02.671Z,99110.78
2023-07-17T14:43:05.177Z,99118.78
2023-07-17T14:46:07.595Z,99115.00
2023-07-17T14:49:09.966Z,99102.75
2023-07-17T14:52:12.288Z,99107.72
2023-07-17T14:55:14.727Z,99101.28
2023-07-17T14:58:17.067Z,99098.69
2023-07-17T15:01:19.395Z,99087.13
2023-07-17T15:04:21.772Z,99088.75
2023-07-17T15:07:24.113Z,99098.94
2023-07-17T15:10:26.475Z,99103.28
2023-07-17T15:13:29.453Z,99111.66
2023-07-17T15:16:32.047Z,99121.12
2023-07-17T15:19:35.505Z,99112.88
2023-07-17T15:22:40.560Z,99115.97
2023-07-17T15:25:42.937Z,99128.03
2023-07-17T15:28:45.312Z,99136.41
2023-07-17T15:31:47.660Z,99130.50
2023-07-17T15:34:49.989Z,99127.00
2023-07-17T15:37:52.318Z,99130.50
2023-07-17T15:40:54.609Z,99133.03
2023-07-17T15:43:56.874Z,99138.31
2023-07-17T15:46:59.402Z,99146.72
2023-07-17T15:50:01.817Z,99146.22
2023-07-17T15:53:04.288Z,99143.62
2023-07-17T15:56:06.685Z,99163.31
2023-07-17T15:59:09.071Z,99163.03
2023-07-17T16:02:11.372Z,99173.28
2023-07-17T16:05:13.739Z,99166.56
2023-07-17T16:08:16.941Z,99172.09
2023-07-17T16:11:19.361Z,99179.94
2023-07-17T16:14:21.677Z,99181.38
2023-07-17T16:17:23.987Z,99181.59
2023-07-17T16:20:26.300Z,99182.19
2023-07-17T16:23:29.014Z,99183.47
2023-07-17T16:26:31.402Z,99177.28
2023-07-17T16:29:33.771Z,99179.69
2023-07-17T16:32:36.328Z,99187.34
2023-07-17T16:35:38.699Z,99187.00
2023-07-17T16:38:41.051Z,99187.84
2023-07-17T16:41:43.405Z,99182.12
2023-07-17T16:44:45.760Z,99182.59
2023-07-17T16:47:48.059Z,99185.97
2023-07-17T16:50:50.378Z,99184.50
2023-07-17T16:53:52.847Z,99186.97
2023-07-17T16:56:55.111Z,99199.28
2023-07-17T16:59:57.360Z,99192.87
2023-07-17T17:02:59.852Z,99191.44
2023-07-17T17:06:02.402Z,99188.00
2023-07-17T17:09:17.455Z,99187.47
2023-07-17T17:12:22.817Z,99185.22
2023-07-17T17:15:25.137Z,99200.78
2023-07-17T17:18:27.420Z,99191.13
2023-07-17T17:21:29.904Z,99192.59
2023-07-17T17:24:32.287Z,99186.34
2023-07-17T17:27:34.643Z,99187.31
2023-07-17T17:30:37.475Z,99195.78
2023-07-17T17:33:39.997Z,99198.22
2023-07-17T17:36:42.296Z,99197.03
2023-07-17T17:39:45.556Z,99197.66
2023-07-17T17:42:47.870Z,99194.94
2023-07-17T17:45:50.339Z,99195.94
2023-07-17T17:48:52.674Z,99196.88
2023-07-17T17:51:54.989Z,99197.22
2023-07-17T17:54:57.328Z,99192.87
2023-07-17T17:58:00.025Z,99197.19
2023-07-17T18:01:02.299Z,99206.34
2023-07-17T18:04:04.827Z,99201.78
2023-07-17T18:07:07.477Z,99204.44
2023-07-17T18:10:10.260Z,99208.06
2023-07-17T18:13:12.568Z,99216.00
2023-07-17T18:16:14.913Z,99223.87
2023-07-17T18:19:18.208Z,99219.66
2023-07-17T18:22:20.500Z,99216.81
2023-07-17T18:25:23.152Z,99226.41
2023-07-17T18:28:25.813Z,99222.87
2023-07-17T18:31:28.282Z,99222.06
2023-07-17T18:34:31.889Z,99225.41
2023-07-17T18:37:34.624Z,99229.97
2023-07-17T18:40:37.171Z,99230.66
2023-07-17T18:43:40.284Z,99236.00
2023-07-17T18:46:42.811Z,99234.47
2023-07-17T18:49:45.236Z,99237.69
2023-07-17T18:52:48.154Z,99242.69
2023-07-17T18:55:51.097Z,99242.62
2023-07-17T18:58:53.392Z,99234.34
2023-07-17T19:01:58.928Z,99237.56
2023-07-17T19:05:01.471Z,99235.38
2023-07-17T19:08:16.089Z,99241.78
2023-07-17T19:11:19.826Z,99253.09
2023-07-17T19:14:25.196Z,99245.69
2023-07-17T19:17:27.680Z,99259.19
2023-07-17T19:20:30.056Z,99266.59
2023-07-17T19:23:32.638Z,99268.13
2023-07-17T19:26:35.159Z,99279.06
2023-07-17T19:29:37.654Z,99273.84
2023-07-17T19:32:43.026Z,99266.88
2023-07-17T19:35:45.707Z,99263.88
2023-07-17T19:38:49.744Z,99250.31
2023-07-17T19:41:52.103Z,99252.00
2023-07-17T19:44:54.555Z,99244.22
2023-07-17T19:47:57.264Z,99250.53
2023-07-17T19:50:59.788Z,99258.31
2023-07-17T19:54:02.255Z,99253.91
2023-07-17T19:57:04.712Z,99244.66
2023-07-17T20:00:09.815Z,99251.38
2023-07-17T20:03:12.894Z,99253.22
2023-07-17T20:06:15.314Z,99250.69
2023-07-17T20:09:23.628Z,99249.94
2023-07-17T20:12:25.971Z,99258.56
2023-07-17T20:15:28.374Z,99241.50
2023-07-17T20:18:30.756Z,99252.31
2023-07-17T20:21:36.310Z,99262.25
2023-07-17T20:24:38.848Z,99257.19
2023-07-17T20:27:42.600Z,99267.31
2023-07-17T20:30:45.282Z,99264.25
2023-07-17T20:33:47.931Z,99259.34
2023-07-17T20:36:50.855Z,99249.16
2023-07-17T20:39:53.161Z,99248.53
2023-07-17T20:42:55.617Z,99254.31
2023-07-17T20:45:58.090Z,99256.50
2023-07-17T20:49:00.659Z,99258.19
2023-07-17T20:52:03.123Z,99266.84
2023-07-17T20:55:07.463Z,99275.22
2023-07-17T20:58:09.837Z,99282.94
2023-07-17T21:01:23.836Z,99282.50
2023-07-17T21:04:26.507Z,99292.00
2023-07-17T21:07:28.868Z,99296.38
2023-07-17T21:10:31.369Z,99296.56
2023-07-17T21:13:33.862Z,99306.44
2023-07-17T21:16:36.217Z,99299.28
2023-07-17T21:19:38.740Z,99300.19
2023-07-17T21:22:41.507Z,99312.41
2023-07-17T21:25:45.278Z,99320.78
2023-07-17T21:28:57.409Z,99320.84
2023-07-17T21:31:59.676Z,99323.16
2023-07-17T21:35:01.992Z,99328.66
2023-07-17T21:38:04.378Z,99330.28
2023-07-17T21:41:08.546Z,99345.44
2023-07-17T21:44:10.813Z,99343.53
2023-07-17T21:47:13.081Z,99354.63
2023-07-17T21:50:15.463Z,99352.69
2023-07-17T21:53:17.724Z,99354.59
2023-07-17T21:56:19.984Z,99359.47
2023-07-17T21:59:22.263Z,99355.69
2023-07-17T22:02:24.533Z,99350.81
2023-07-17T22:05:28.057Z,99352.44
2023-07-17T22:08:30.335Z,99353.53
2023-07-17T22:11:32.618Z,99351.13
2023-07-17T22:14:35.269Z,99357.06
2023-07-17T22:17:37.714Z,99354.06
2023-07-17T22:20:39.990Z,99360.56
2023-07-17T22:23:42.276Z,99365.97
2023-07-17T22:26:44.573Z,99365.44
2023-07-17T22:29:47.575Z,99364.88
2023-07-17T22:32:49.973Z,99370.84
2023-07-17T22:35:52.393Z,99379.19
2023-07-17T22:38:54.698Z,99377.88
2023-07-17T22:41:56.994Z,99372.19
2023-07-17T22:44:59.371Z,99388.66
2023-07-17T22:48:01.766Z,99391.87
2023-07-17T22:51:04.170Z,99385.94
2023-07-17T22:54:06.547Z,99390.00
2023-07-17T22:57:08.997Z,99401.91
2023-07-17T23:00:14.952Z,99401.63
2023-07-17T23:03:17.236Z,99405.38
2023-07-17T23:06:19.514Z,99405.13
2023-07-17T23:09:21.837Z,99404.31
2023-07-17T23:12:24.237Z,99403.78
2023-07-17T23:15:26.599Z,99403.22
2023-07-17T23:18:28.912Z,99407.56
2023-07-17T23:21:51.148Z,99407.00
2023-07-17T23:24:53.437Z,99399.44
2023-07-17T23:27:55.719Z,99406.75
2023-07-17T23:30:57.952Z,99412.13
2023-07-17T23:34:00.218Z,99407.56
2023-07-17T23:37:04.093Z,99409.16
2023-07-17T23:40:09.970Z,99413.75
2023-07-17T23:43:13.492Z,99411.59
2023-07-17T23:46:15.965Z,99427.00
2023-07-17T23:49:18.281Z,99428.34
2023-07-17T23:52:21.336Z,99439.69
2023-07-17T23:55:23.628Z,99443.72
2023-07-17T23:58:25.955Z,99448.06
